Baltic K — 3FLX8 — position and weather

sailwx.info

Track history (hours):
 
Tides and Currents Weather Stations Pressure Air Temp Water Temp Dewpoint Dewpoint Depression Visibility Wind Speed Wind Dir Waves Ship Positions

Baltic K

Last reported at 2017-Nov-12 06:14 UTC. Time now 2017-Nov-20 15:32 UTC.
Position N 01°17' E 103°21'.
Warning: this ship's position is 8 days out of date.

Length 190 m; draft 12.6 m.

Type: Cargo ship. MMSI: 373107000.

Date/timePositionNaut miles runAvg speedWind from/ knotsBaromVisibWave heightAir tempDewpointWater temp
2017-Nov-12 06:14N 01°17' E 103°21'313.6
2017-Nov-12 06:01N 01°16' E 103°23'713.3
2017-Nov-12 05:30N 01°13' E 103°30'713.7
2017-Nov-12 05:01N 01°12' E 103°36'612.4
2017-Nov-12 04:30N 01°09' E 103°42'610.8
2017-Nov-12 04:00N 01°10' E 103°48'612.3
2017-Nov-12 03:30N 01°13' E 103°53'612.7
2017-Nov-12 03:00N 01°15' E 103°59'712.5
2017-Nov-12 02:25N 01°17' E 104°06'  
Track history (hours):
 
Tides and Currents Weather Stations Pressure Air Temp Water Temp Dewpoint Dewpoint Depression Visibility Wind Speed Wind Dir Waves Ship Positions

Baltic K

Last reported at 2017-Nov-12 06:14 UTC. Time now 2017-Nov-20 15:32 UTC.
Position N 01°17' E 103°21'.
Warning: this ship's position is 8 days out of date.

Length 190 m; draft 12.6 m.

Type: Cargo ship. MMSI: 373107000.

Date/timePositionNaut miles runAvg speedWind from/ knotsBaromVisibWave heightAir tempDewpointWater temp
2017-Nov-12 06:14N 01°17' E 103°21'313.6
2017-Nov-12 06:01N 01°16' E 103°23'713.3
2017-Nov-12 05:30N 01°13' E 103°30'713.7
2017-Nov-12 05:01N 01°12' E 103°36'612.4
2017-Nov-12 04:30N 01°09' E 103°42'610.8
2017-Nov-12 04:00N 01°10' E 103°48'612.3
2017-Nov-12 03:30N 01°13' E 103°53'612.7
2017-Nov-12 03:00N 01°15' E 103°59'712.5
2017-Nov-12 02:25N 01°17' E 104°06'  

Dump ship's entire track history